sensor_id;sensor_type;location;lat;lon;timestamp;temperature;humidity
8340;DHT22;4207;49.314;7.162;2022-10-31T00:00:46;12.10;99.90
8340;DHT22;4207;49.314;7.162;2022-10-31T00:03:15;12.10;99.90
8340;DHT22;4207;49.314;7.162;2022-10-31T00:05:44;12.10;99.90
8340;DHT22;4207;49.314;7.162;2022-10-31T00:08:13;12.10;99.90
8340;DHT22;4207;49.314;7.162;2022-10-31T00:10:41;12.10;99.90
8340;DHT22;4207;49.314;7.162;2022-10-31T00:13:10;12.20;99.90
8340;DHT22;4207;49.314;7.162;2022-10-31T00:15:41;12.20;99.90
8340;DHT22;4207;49.314;7.162;2022-10-31T00:18:09;12.20;99.90
8340;DHT22;4207;49.314;7.162;2022-10-31T00:20:38;12.10;99.90
8340;DHT22;4207;49.314;7.162;2022-10-31T00:23:06;12.20;99.90
8340;DHT22;4207;49.314;7.162;2022-10-31T00:25:36;12.20;99.90
8340;DHT22;4207;49.314;7.162;2022-10-31T00:28:06;12.10;99.90
8340;DHT22;4207;49.314;7.162;2022-10-31T00:30:34;12.10;99.90
8340;DHT22;4207;49.314;7.162;2022-10-31T00:33:04;12.10;99.90
8340;DHT22;4207;49.314;7.162;2022-10-31T00:35:32;12.10;99.90
8340;DHT22;4207;49.314;7.162;2022-10-31T00:38:00;12.10;99.90
8340;DHT22;4207;49.314;7.162;2022-10-31T00:40:28;12.10;99.90
8340;DHT22;4207;49.314;7.162;2022-10-31T00:42:56;12.00;99.90
8340;DHT22;4207;49.314;7.162;2022-10-31T00:45:25;12.00;99.90
8340;DHT22;4207;49.314;7.162;2022-10-31T00:47:52;12.00;99.90
8340;DHT22;4207;49.314;7.162;2022-10-31T00:50:22;11.90;99.90
8340;DHT22;4207;49.314;7.162;2022-10-31T00:52:50;12.00;99.90
8340;DHT22;4207;49.314;7.162;2022-10-31T00:55:18;11.90;99.90
8340;DHT22;4207;49.314;7.162;2022-10-31T00:57:46;12.00;99.90
8340;DHT22;4207;49.314;7.162;2022-10-31T01:00:15;12.00;99.90
8340;DHT22;4207;49.314;7.162;2022-10-31T01:02:43;12.00;99.90
8340;DHT22;4207;49.314;7.162;2022-10-31T01:05:12;12.00;99.90
8340;DHT22;4207;49.314;7.162;2022-10-31T01:07:41;12.00;99.90
8340;DHT22;4207;49.314;7.162;2022-10-31T01:10:10;12.00;99.90
8340;DHT22;4207;49.314;7.162;2022-10-31T01:12:39;12.00;99.90
8340;DHT22;4207;49.314;7.162;2022-10-31T01:15:09;12.10;99.90
8340;DHT22;4207;49.314;7.162;2022-10-31T01:17:37;12.10;99.90
8340;DHT22;4207;49.314;7.162;2022-10-31T01:20:13;12.10;99.90
8340;DHT22;4207;49.314;7.162;2022-10-31T01:22:42;12.10;99.90
8340;DHT22;4207;49.314;7.162;2022-10-31T01:25:10;12.10;99.90
8340;DHT22;4207;49.314;7.162;2022-10-31T01:27:38;12.10;99.90
8340;DHT22;4207;49.314;7.162;2022-10-31T01:30:07;12.10;99.90
8340;DHT22;4207;49.314;7.162;2022-10-31T01:32:35;12.10;99.90
8340;DHT22;4207;49.314;7.162;2022-10-31T01:35:03;12.10;99.90
8340;DHT22;4207;49.314;7.162;2022-10-31T01:37:32;12.10;99.90
8340;DHT22;4207;49.314;7.162;2022-10-31T01:40:01;12.10;99.90
8340;DHT22;4207;49.314;7.162;2022-10-31T01:42:29;12.10;99.90
8340;DHT22;4207;49.314;7.162;2022-10-31T01:44:59;12.00;99.90
8340;DHT22;4207;49.314;7.162;2022-10-31T01:47:36;12.00;99.90
8340;DHT22;4207;49.314;7.162;2022-10-31T01:50:11;12.00;99.90
8340;DHT22;4207;49.314;7.162;2022-10-31T01:52:42;11.90;99.90
8340;DHT22;4207;49.314;7.162;2022-10-31T01:55:15;11.90;99.90
8340;DHT22;4207;49.314;7.162;2022-10-31T01:57:46;11.90;99.90
8340;DHT22;4207;49.314;7.162;2022-10-31T02:00:19;11.90;99.90
8340;DHT22;4207;49.314;7.162;2022-10-31T02:02:48;11.80;99.90
8340;DHT22;4207;49.314;7.162;2022-10-31T02:05:19;11.80;99.90
8340;DHT22;4207;49.314;7.162;2022-10-31T02:07:53;11.80;99.90
8340;DHT22;4207;49.314;7.162;2022-10-31T02:10:29;11.80;99.90
8340;DHT22;4207;49.314;7.162;2022-10-31T02:13:01;11.80;99.90
8340;DHT22;4207;49.314;7.162;2022-10-31T02:15:31;11.80;99.90
8340;DHT22;4207;49.314;7.162;2022-10-31T02:17:59;11.70;99.90
8340;DHT22;4207;49.314;7.162;2022-10-31T02:20:32;11.80;99.90
8340;DHT22;4207;49.314;7.162;2022-10-31T02:23:25;11.80;99.90
8340;DHT22;4207;49.314;7.162;2022-10-31T02:26:19;11.70;99.90
8340;DHT22;4207;49.314;7.162;2022-10-31T02:29:12;11.70;99.90
8340;DHT22;4207;49.314;7.162;2022-10-31T02:31:51;11.70;99.90
8340;DHT22;4207;49.314;7.162;2022-10-31T02:34:28;11.70;99.90
8340;DHT22;4207;49.314;7.162;2022-10-31T02:37:10;11.70;99.90
8340;DHT22;4207;49.314;7.162;2022-10-31T02:39:44;11.60;99.90
8340;DHT22;4207;49.314;7.162;2022-10-31T02:42:27;11.60;99.90
8340;DHT22;4207;49.314;7.162;2022-10-31T02:45:03;11.60;99.90
8340;DHT22;4207;49.314;7.162;2022-10-31T02:47:37;11.60;99.90
8340;DHT22;4207;49.314;7.162;2022-10-31T02:50:08;11.60;99.90
8340;DHT22;4207;49.314;7.162;2022-10-31T02:52:40;11.60;99.90
8340;DHT22;4207;49.314;7.162;2022-10-31T02:55:12;11.50;99.90
8340;DHT22;4207;49.314;7.162;2022-10-31T02:57:41;11.50;99.90
8340;DHT22;4207;49.314;7.162;2022-10-31T03:00:10;11.40;99.90
8340;DHT22;4207;49.314;7.162;2022-10-31T03:02:56;11.40;99.90
8340;DHT22;4207;49.314;7.162;2022-10-31T03:05:40;11.40;99.90
8340;DHT22;4207;49.314;7.162;2022-10-31T03:08:21;11.40;99.90
8340;DHT22;4207;49.314;7.162;2022-10-31T03:10:54;11.40;99.90
8340;DHT22;4207;49.314;7.162;2022-10-31T03:13:33;11.40;99.90
8340;DHT22;4207;49.314;7.162;2022-10-31T03:16:08;11.40;99.90
8340;DHT22;4207;49.314;7.162;2022-10-31T03:18:40;11.30;99.90
8340;DHT22;4207;49.314;7.162;2022-10-31T03:21:13;11.40;99.90
8340;DHT22;4207;49.314;7.162;2022-10-31T03:23:43;11.30;99.90
8340;DHT22;4207;49.314;7.162;2022-10-31T03:26:19;11.30;99.90
8340;DHT22;4207;49.314;7.162;2022-10-31T03:28:53;11.20;99.90
8340;DHT22;4207;49.314;7.162;2022-10-31T03:31:25;11.20;99.90
8340;DHT22;4207;49.314;7.162;2022-10-31T03:33:56;11.20;99.90
8340;DHT22;4207;49.314;7.162;2022-10-31T03:36:30;11.20;99.90
8340;DHT22;4207;49.314;7.162;2022-10-31T03:39:02;11.20;99.90
8340;DHT22;4207;49.314;7.162;2022-10-31T03:41:34;11.20;99.90
8340;DHT22;4207;49.314;7.162;2022-10-31T03:44:06;11.20;99.90
8340;DHT22;4207;49.314;7.162;2022-10-31T03:46:38;11.20;99.90
8340;DHT22;4207;49.314;7.162;2022-10-31T03:49:08;11.20;99.90
8340;DHT22;4207;49.314;7.162;2022-10-31T03:51:42;11.20;99.90
8340;DHT22;4207;49.314;7.162;2022-10-31T03:54:18;11.30;99.90
8340;DHT22;4207;49.314;7.162;2022-10-31T03:56:50;11.20;99.90
8340;DHT22;4207;49.314;7.162;2022-10-31T03:59:26;11.20;99.90
8340;DHT22;4207;49.314;7.162;2022-10-31T04:02:00;11.20;99.90
8340;DHT22;4207;49.314;7.162;2022-10-31T04:04:32;11.20;99.90
8340;DHT22;4207;49.314;7.162;2022-10-31T04:07:01;11.20;99.90
8340;DHT22;4207;49.314;7.162;2022-10-31T04:09:33;11.20;99.90
8340;DHT22;4207;49.314;7.162;2022-10-31T04:12:04;11.20;99.90
8340;DHT22;4207;49.314;7.162;2022-10-31T04:14:56;11.10;99.90
8340;DHT22;4207;49.314;7.162;2022-10-31T04:17:27;11.10;99.90
8340;DHT22;4207;49.314;7.162;2022-10-31T04:20:00;11.10;99.90
8340;DHT22;4207;49.314;7.162;2022-10-31T04:22:28;11.10;99.90
8340;DHT22;4207;49.314;7.162;2022-10-31T04:24:57;11.00;99.90
8340;DHT22;4207;49.314;7.162;2022-10-31T04:27:25;11.00;99.90
8340;DHT22;4207;49.314;7.162;2022-10-31T04:29:53;11.00;99.90
8340;DHT22;4207;49.314;7.162;2022-10-31T04:32:21;11.00;99.90
8340;DHT22;4207;49.314;7.162;2022-10-31T04:34:51;11.10;99.90
8340;DHT22;4207;49.314;7.162;2022-10-31T04:37:21;11.10;99.90
8340;DHT22;4207;49.314;7.162;2022-10-31T04:39:49;11.10;99.90
8340;DHT22;4207;49.314;7.162;2022-10-31T04:42:42;11.00;99.90
8340;DHT22;4207;49.314;7.162;2022-10-31T04:45:11;11.10;99.90
8340;DHT22;4207;49.314;7.162;2022-10-31T04:47:47;11.00;99.90
8340;DHT22;4207;49.314;7.162;2022-10-31T04:50:15;11.00;99.90
8340;DHT22;4207;49.314;7.162;2022-10-31T04:52:46;11.00;99.90
8340;DHT22;4207;49.314;7.162;2022-10-31T04:55:17;11.00;99.90
8340;DHT22;4207;49.314;7.162;2022-10-31T04:57:54;10.80;99.90
8340;DHT22;4207;49.314;7.162;2022-10-31T05:00:24;10.70;99.90
8340;DHT22;4207;49.314;7.162;2022-10-31T05:02:54;10.80;99.90
8340;DHT22;4207;49.314;7.162;2022-10-31T05:05:26;10.80;99.90
8340;DHT22;4207;49.314;7.162;2022-10-31T05:07:56;10.80;99.90
8340;DHT22;4207;49.314;7.162;2022-10-31T05:10:26;10.70;99.90
8340;DHT22;4207;49.314;7.162;2022-10-31T05:12:58;10.70;99.90
8340;DHT22;4207;49.314;7.162;2022-10-31T05:15:46;10.60;99.90
8340;DHT22;4207;49.314;7.162;2022-10-31T05:18:49;10.60;99.90
8340;DHT22;4207;49.314;7.162;2022-10-31T05:21:35;10.60;99.90
8340;DHT22;4207;49.314;7.162;2022-10-31T05:24:05;10.60;99.90
8340;DHT22;4207;49.314;7.162;2022-10-31T05:26:35;10.50;99.90
8340;DHT22;4207;49.314;7.162;2022-10-31T05:29:03;10.50;99.90
8340;DHT22;4207;49.314;7.162;2022-10-31T05:31:31;10.50;99.90
8340;DHT22;4207;49.314;7.162;2022-10-31T05:34:00;10.50;99.90
8340;DHT22;4207;49.314;7.162;2022-10-31T05:36:46;10.50;99.90
8340;DHT22;4207;49.314;7.162;2022-10-31T05:39:18;10.50;99.90
8340;DHT22;4207;49.314;7.162;2022-10-31T05:41:48;10.50;99.90
8340;DHT22;4207;49.314;7.162;2022-10-31T05:44:25;10.50;99.90
8340;DHT22;4207;49.314;7.162;2022-10-31T05:47:10;10.40;99.90
8340;DHT22;4207;49.314;7.162;2022-10-31T05:50:13;10.30;99.90
8340;DHT22;4207;49.314;7.162;2022-10-31T05:52:55;10.30;99.90
8340;DHT22;4207;49.314;7.162;2022-10-31T05:55:32;10.30;99.90
8340;DHT22;4207;49.314;7.162;2022-10-31T05:58:21;10.40;99.90
8340;DHT22;4207;49.314;7.162;2022-10-31T06:01:02;10.30;99.90
8340;DHT22;4207;49.314;7.162;2022-10-31T06:03:31;10.30;99.90
8340;DHT22;4207;49.314;7.162;2022-10-31T06:06:01;10.30;99.90
8340;DHT22;4207;49.314;7.162;2022-10-31T06:08:34;10.30;99.90
8340;DHT22;4207;49.314;7.162;2022-10-31T06:11:12;10.30;99.90
8340;DHT22;4207;49.314;7.162;2022-10-31T06:13:59;10.20;99.90
8340;DHT22;4207;49.314;7.162;2022-10-31T06:53:37;10.10;99.90
8340;DHT22;4207;49.314;7.162;2022-10-31T06:56:08;10.60;99.90
8340;DHT22;4207;49.314;7.162;2022-10-31T06:58:42;10.70;99.90
8340;DHT22;4207;49.314;7.162;2022-10-31T07:01:12;10.70;99.90
8340;DHT22;4207;49.314;7.162;2022-10-31T07:03:40;10.80;99.90
8340;DHT22;4207;49.314;7.162;2022-10-31T07:06:08;10.80;99.90
8340;DHT22;4207;49.314;7.162;2022-10-31T07:08:38;10.90;99.90
8340;DHT22;4207;49.314;7.162;2022-10-31T07:11:06;11.00;99.90
8340;DHT22;4207;49.314;7.162;2022-10-31T07:13:34;11.00;99.90
8340;DHT22;4207;49.314;7.162;2022-10-31T07:16:08;11.00;99.90
8340;DHT22;4207;49.314;7.162;2022-10-31T07:18:39;11.00;99.90
8340;DHT22;4207;49.314;7.162;2022-10-31T07:21:08;11.10;99.90
8340;DHT22;4207;49.314;7.162;2022-10-31T07:23:36;11.10;99.90
8340;DHT22;4207;49.314;7.162;2022-10-31T07:26:22;11.20;99.90
8340;DHT22;4207;49.314;7.162;2022-10-31T07:28:51;11.20;99.90
8340;DHT22;4207;49.314;7.162;2022-10-31T07:31:23;11.30;99.90
8340;DHT22;4207;49.314;7.162;2022-10-31T07:33:54;11.30;99.90
8340;DHT22;4207;49.314;7.162;2022-10-31T07:36:28;11.30;99.90
8340;DHT22;4207;49.314;7.162;2022-10-31T07:39:01;11.30;99.90
8340;DHT22;4207;49.314;7.162;2022-10-31T07:41:31;11.30;99.90
8340;DHT22;4207;49.314;7.162;2022-10-31T07:43:59;11.40;99.90
8340;DHT22;4207;49.314;7.162;2022-10-31T07:46:47;11.50;99.90
8340;DHT22;4207;49.314;7.162;2022-10-31T07:49:33;11.60;99.90
8340;DHT22;4207;49.314;7.162;2022-10-31T07:52:27;11.60;99.90
8340;DHT22;4207;49.314;7.162;2022-10-31T07:55:14;11.80;99.90
8340;DHT22;4207;49.314;7.162;2022-10-31T07:57:55;11.90;99.90
8340;DHT22;4207;49.314;7.162;2022-10-31T08:00:23;12.00;99.90
8340;DHT22;4207;49.314;7.162;2022-10-31T08:02:59;12.10;99.90
8340;DHT22;4207;49.314;7.162;2022-10-31T08:05:47;12.20;99.90
8340;DHT22;4207;49.314;7.162;2022-10-31T08:08:34;12.30;99.90
8340;DHT22;4207;49.314;7.162;2022-10-31T08:11:06;12.30;99.90
8340;DHT22;4207;49.314;7.162;2022-10-31T08:13:33;12.50;99.90
8340;DHT22;4207;49.314;7.162;2022-10-31T08:16:02;12.50;99.90
8340;DHT22;4207;49.314;7.162;2022-10-31T08:18:36;12.60;99.90
8340;DHT22;4207;49.314;7.162;2022-10-31T08:21:08;12.70;99.90
8340;DHT22;4207;49.314;7.162;2022-10-31T08:23:37;12.80;99.90
8340;DHT22;4207;49.314;7.162;2022-10-31T08:26:05;12.90;99.90
8340;DHT22;4207;49.314;7.162;2022-10-31T08:28:33;13.10;99.90
8340;DHT22;4207;49.314;7.162;2022-10-31T08:31:02;13.20;99.90
8340;DHT22;4207;49.314;7.162;2022-10-31T08:33:41;13.20;99.90
8340;DHT22;4207;49.314;7.162;2022-10-31T08:36:29;13.40;99.90
8340;DHT22;4207;49.314;7.162;2022-10-31T08:39:13;13.50;99.90
8340;DHT22;4207;49.314;7.162;2022-10-31T08:41:41;13.60;99.90
8340;DHT22;4207;49.314;7.162;2022-10-31T08:44:12;13.70;99.90
8340;DHT22;4207;49.314;7.162;2022-10-31T08:46:40;13.70;99.90
8340;DHT22;4207;49.314;7.162;2022-10-31T08:49:09;13.90;99.90
8340;DHT22;4207;49.314;7.162;2022-10-31T08:51:40;14.00;99.90
8340;DHT22;4207;49.314;7.162;2022-10-31T08:54:08;14.00;99.90
8340;DHT22;4207;49.314;7.162;2022-10-31T08:56:56;14.10;99.90
8340;DHT22;4207;49.314;7.162;2022-10-31T08:59:45;14.10;99.90
8340;DHT22;4207;49.314;7.162;2022-10-31T09:02:13;14.10;99.90
8340;DHT22;4207;49.314;7.162;2022-10-31T09:04:43;14.10;99.90
8340;DHT22;4207;49.314;7.162;2022-10-31T09:07:11;14.10;99.90
8340;DHT22;4207;49.314;7.162;2022-10-31T09:09:47;14.10;99.90
8340;DHT22;4207;49.314;7.162;2022-10-31T09:12:17;14.10;99.90
8340;DHT22;4207;49.314;7.162;2022-10-31T09:15:17;14.10;99.90
8340;DHT22;4207;49.314;7.162;2022-10-31T09:17:50;14.20;99.90
8340;DHT22;4207;49.314;7.162;2022-10-31T09:20:22;14.20;99.90
8340;DHT22;4207;49.314;7.162;2022-10-31T09:22:55;14.30;99.90
8340;DHT22;4207;49.314;7.162;2022-10-31T09:25:25;14.40;99.90
8340;DHT22;4207;49.314;7.162;2022-10-31T09:28:15;14.50;99.90
8340;DHT22;4207;49.314;7.162;2022-10-31T09:30:46;14.70;99.90
8340;DHT22;4207;49.314;7.162;2022-10-31T09:33:21;14.70;99.90
8340;DHT22;4207;49.314;7.162;2022-10-31T09:36:08;14.90;99.90
8340;DHT22;4207;49.314;7.162;2022-10-31T09:38:39;15.00;99.90
8340;DHT22;4207;49.314;7.162;2022-10-31T09:41:16;15.00;99.90
8340;DHT22;4207;49.314;7.162;2022-10-31T09:43:52;15.10;99.90
8340;DHT22;4207;49.314;7.162;2022-10-31T09:46:29;15.20;99.90
8340;DHT22;4207;49.314;7.162;2022-10-31T09:49:21;15.30;99.90
8340;DHT22;4207;49.314;7.162;2022-10-31T09:51:57;15.40;99.90
8340;DHT22;4207;49.314;7.162;2022-10-31T09:54:33;15.50;99.90
8340;DHT22;4207;49.314;7.162;2022-10-31T09:57:02;15.70;99.90
8340;DHT22;4207;49.314;7.162;2022-10-31T09:59:36;15.80;99.90
8340;DHT22;4207;49.314;7.162;2022-10-31T10:02:11;15.90;99.90
8340;DHT22;4207;49.314;7.162;2022-10-31T10:04:44;16.00;99.90
8340;DHT22;4207;49.314;7.162;2022-10-31T10:07:24;16.00;99.90
8340;DHT22;4207;49.314;7.162;2022-10-31T10:10:15;16.10;99.90
8340;DHT22;4207;49.314;7.162;2022-10-31T10:13:27;16.20;99.90
8340;DHT22;4207;49.314;7.162;2022-10-31T10:16:12;16.30;99.90
8340;DHT22;4207;49.314;7.162;2022-10-31T10:18:50;16.30;99.90
8340;DHT22;4207;49.314;7.162;2022-10-31T10:21:28;16.30;99.90
8340;DHT22;4207;49.314;7.162;2022-10-31T10:24:11;16.40;99.90
8340;DHT22;4207;49.314;7.162;2022-10-31T10:26:43;16.40;99.90
8340;DHT22;4207;49.314;7.162;2022-10-31T10:29:27;16.40;99.90
8340;DHT22;4207;49.314;7.162;2022-10-31T10:32:00;16.40;99.90
8340;DHT22;4207;49.314;7.162;2022-10-31T10:34:32;16.50;99.90
8340;DHT22;4207;49.314;7.162;2022-10-31T10:37:04;16.50;99.90
8340;DHT22;4207;49.314;7.162;2022-10-31T10:39:38;16.60;99.90
8340;DHT22;4207;49.314;7.162;2022-10-31T10:42:12;16.70;99.90
8340;DHT22;4207;49.314;7.162;2022-10-31T10:44:58;16.70;99.90
8340;DHT22;4207;49.314;7.162;2022-10-31T10:47:47;16.90;99.90
8340;DHT22;4207;49.314;7.162;2022-10-31T10:50:19;16.90;99.90
8340;DHT22;4207;49.314;7.162;2022-10-31T10:52:52;16.90;99.90
8340;DHT22;4207;49.314;7.162;2022-10-31T10:55:32;16.90;99.90
8340;DHT22;4207;49.314;7.162;2022-10-31T10:58:07;17.00;99.90
8340;DHT22;4207;49.314;7.162;2022-10-31T11:00:38;17.10;99.90
8340;DHT22;4207;49.314;7.162;2022-10-31T11:03:07;17.20;99.90
8340;DHT22;4207;49.314;7.162;2022-10-31T11:05:37;17.30;99.90
8340;DHT22;4207;49.314;7.162;2022-10-31T11:08:07;17.40;99.90
8340;DHT22;4207;49.314;7.162;2022-10-31T11:10:37;17.40;99.90
8340;DHT22;4207;49.314;7.162;2022-10-31T11:13:20;17.60;99.90
8340;DHT22;4207;49.314;7.162;2022-10-31T11:15:54;17.60;99.90
8340;DHT22;4207;49.314;7.162;2022-10-31T11:18:27;17.70;99.90
8340;DHT22;4207;49.314;7.162;2022-10-31T11:20:56;17.70;99.90
8340;DHT22;4207;49.314;7.162;2022-10-31T11:23:25;17.80;99.90
8340;DHT22;4207;49.314;7.162;2022-10-31T11:25:57;17.90;99.90
8340;DHT22;4207;49.314;7.162;2022-10-31T11:28:26;18.00;99.90
8340;DHT22;4207;49.314;7.162;2022-10-31T11:30:57;18.00;99.90
8340;DHT22;4207;49.314;7.162;2022-10-31T11:33:30;18.00;99.90
8340;DHT22;4207;49.314;7.162;2022-10-31T11:36:00;18.10;99.90
8340;DHT22;4207;49.314;7.162;2022-10-31T11:38:33;18.10;99.90
8340;DHT22;4207;49.314;7.162;2022-10-31T11:41:10;18.20;99.90
8340;DHT22;4207;49.314;7.162;2022-10-31T11:43:46;18.20;99.90
8340;DHT22;4207;49.314;7.162;2022-10-31T11:46:21;18.20;99.90
8340;DHT22;4207;49.314;7.162;2022-10-31T11:48:51;18.10;99.90
8340;DHT22;4207;49.314;7.162;2022-10-31T11:51:22;18.20;99.90
8340;DHT22;4207;49.314;7.162;2022-10-31T11:53:52;18.20;99.90
8340;DHT22;4207;49.314;7.162;2022-10-31T11:56:37;18.20;99.90
8340;DHT22;4207;49.314;7.162;2022-10-31T11:59:16;18.20;99.90
8340;DHT22;4207;49.314;7.162;2022-10-31T12:01:48;18.20;99.90
8340;DHT22;4207;49.314;7.162;2022-10-31T12:04:17;18.10;99.90
8340;DHT22;4207;49.314;7.162;2022-10-31T12:06:46;18.10;99.90
8340;DHT22;4207;49.314;7.162;2022-10-31T12:09:20;18.10;99.90
8340;DHT22;4207;49.314;7.162;2022-10-31T12:14:47;18.20;99.90
8340;DHT22;4207;49.314;7.162;2022-10-31T12:17:19;18.20;99.90
8340;DHT22;4207;49.314;7.162;2022-10-31T12:20:00;18.20;99.90
8340;DHT22;4207;49.314;7.162;2022-10-31T12:22:37;18.20;99.90
8340;DHT22;4207;49.314;7.162;2022-10-31T12:25:16;18.20;99.90
8340;DHT22;4207;49.314;7.162;2022-10-31T12:27:59;18.20;99.90
8340;DHT22;4207;49.314;7.162;2022-10-31T12:30:40;18.20;99.90
8340;DHT22;4207;49.314;7.162;2022-10-31T12:33:25;18.30;99.90
8340;DHT22;4207;49.314;7.162;2022-10-31T12:36:21;18.30;99.90
8340;DHT22;4207;49.314;7.162;2022-10-31T12:39:03;18.40;99.90
8340;DHT22;4207;49.314;7.162;2022-10-31T12:41:44;18.50;99.90
8340;DHT22;4207;49.314;7.162;2022-10-31T12:44:46;18.60;99.90
8340;DHT22;4207;49.314;7.162;2022-10-31T12:47:40;18.70;99.90
8340;DHT22;4207;49.314;7.162;2022-10-31T12:50:22;18.90;99.90
8340;DHT22;4207;49.314;7.162;2022-10-31T12:53:02;19.10;99.90
8340;DHT22;4207;49.314;7.162;2022-10-31T12:55:55;19.30;99.90
8340;DHT22;4207;49.314;7.162;2022-10-31T12:58:31;19.40;99.90
8340;DHT22;4207;49.314;7.162;2022-10-31T13:01:07;19.50;99.90
8340;DHT22;4207;49.314;7.162;2022-10-31T13:03:44;19.50;99.90
8340;DHT22;4207;49.314;7.162;2022-10-31T13:06:17;19.40;99.90
8340;DHT22;4207;49.314;7.162;2022-10-31T13:08:47;19.30;99.90
8340;DHT22;4207;49.314;7.162;2022-10-31T13:11:19;19.20;99.90
8340;DHT22;4207;49.314;7.162;2022-10-31T13:13:54;19.00;99.90
8340;DHT22;4207;49.314;7.162;2022-10-31T13:16:29;18.80;99.90
8340;DHT22;4207;49.314;7.162;2022-10-31T13:19:01;18.70;99.90
8340;DHT22;4207;49.314;7.162;2022-10-31T13:21:40;18.60;99.90
8340;DHT22;4207;49.314;7.162;2022-10-31T13:24:15;18.50;99.90
8340;DHT22;4207;49.314;7.162;2022-10-31T13:26:47;18.50;99.90
8340;DHT22;4207;49.314;7.162;2022-10-31T13:29:21;18.30;99.90
8340;DHT22;4207;49.314;7.162;2022-10-31T13:31:56;18.20;99.90
8340;DHT22;4207;49.314;7.162;2022-10-31T13:34:27;18.10;99.90
8340;DHT22;4207;49.314;7.162;2022-10-31T13:37:03;17.90;99.90
8340;DHT22;4207;49.314;7.162;2022-10-31T13:39:43;17.80;99.90
8340;DHT22;4207;49.314;7.162;2022-10-31T13:42:17;17.70;99.90
8340;DHT22;4207;49.314;7.162;2022-10-31T13:44:47;17.60;99.90
8340;DHT22;4207;49.314;7.162;2022-10-31T13:47:24;17.50;99.90
8340;DHT22;4207;49.314;7.162;2022-10-31T13:50:03;17.50;99.90
8340;DHT22;4207;49.314;7.162;2022-10-31T13:52:32;17.50;99.90
8340;DHT22;4207;49.314;7.162;2022-10-31T13:55:00;17.40;99.90
8340;DHT22;4207;49.314;7.162;2022-10-31T13:57:32;17.30;99.90
8340;DHT22;4207;49.314;7.162;2022-10-31T14:00:03;17.30;99.90
8340;DHT22;4207;49.314;7.162;2022-10-31T14:02:46;17.30;99.90
8340;DHT22;4207;49.314;7.162;2022-10-31T14:05:22;17.30;99.90
8340;DHT22;4207;49.314;7.162;2022-10-31T14:07:52;17.40;99.90
8340;DHT22;4207;49.314;7.162;2022-10-31T14:10:24;17.40;99.90
8340;DHT22;4207;49.314;7.162;2022-10-31T14:13:02;17.50;99.90
8340;DHT22;4207;49.314;7.162;2022-10-31T14:15:31;17.60;99.90
8340;DHT22;4207;49.314;7.162;2022-10-31T14:18:03;17.70;99.90
8340;DHT22;4207;49.314;7.162;2022-10-31T14:20:38;17.80;99.90
8340;DHT22;4207;49.314;7.162;2022-10-31T14:23:34;18.00;99.90
8340;DHT22;4207;49.314;7.162;2022-10-31T14:26:31;18.00;99.90
8340;DHT22;4207;49.314;7.162;2022-10-31T14:29:01;18.10;99.90
8340;DHT22;4207;49.314;7.162;2022-10-31T14:31:32;18.00;99.90
8340;DHT22;4207;49.314;7.162;2022-10-31T14:34:19;18.00;99.90
8340;DHT22;4207;49.314;7.162;2022-10-31T14:39:52;17.80;99.90
8340;DHT22;4207;49.314;7.162;2022-10-31T14:42:35;17.70;99.90
8340;DHT22;4207;49.314;7.162;2022-10-31T14:45:17;17.60;99.90
8340;DHT22;4207;49.314;7.162;2022-10-31T14:48:00;17.50;99.90
8340;DHT22;4207;49.314;7.162;2022-10-31T14:50:42;17.30;99.90
8340;DHT22;4207;49.314;7.162;2022-10-31T14:53:17;17.20;99.90
8340;DHT22;4207;49.314;7.162;2022-10-31T14:55:48;17.10;99.90
8340;DHT22;4207;49.314;7.162;2022-10-31T14:58:20;17.10;99.90
8340;DHT22;4207;49.314;7.162;2022-10-31T15:00:52;17.10;99.90
8340;DHT22;4207;49.314;7.162;2022-10-31T15:03:25;17.10;99.90
8340;DHT22;4207;49.314;7.162;2022-10-31T15:05:58;17.10;99.90
8340;DHT22;4207;49.314;7.162;2022-10-31T15:08:33;17.20;99.90
8340;DHT22;4207;49.314;7.162;2022-10-31T15:11:15;17.20;99.90
8340;DHT22;4207;49.314;7.162;2022-10-31T15:13:45;17.10;99.90
8340;DHT22;4207;49.314;7.162;2022-10-31T15:16:15;17.00;99.90
8340;DHT22;4207;49.314;7.162;2022-10-31T15:18:48;17.00;99.90
8340;DHT22;4207;49.314;7.162;2022-10-31T15:21:19;16.90;99.90
8340;DHT22;4207;49.314;7.162;2022-10-31T15:23:50;16.80;99.90
8340;DHT22;4207;49.314;7.162;2022-10-31T15:26:21;16.60;99.90
8340;DHT22;4207;49.314;7.162;2022-10-31T15:29:00;16.50;99.90
8340;DHT22;4207;49.314;7.162;2022-10-31T15:31:29;16.50;99.90
8340;DHT22;4207;49.314;7.162;2022-10-31T15:34:02;16.40;99.90
8340;DHT22;4207;49.314;7.162;2022-10-31T15:36:32;16.40;99.90
8340;DHT22;4207;49.314;7.162;2022-10-31T15:39:04;16.30;99.90
8340;DHT22;4207;49.314;7.162;2022-10-31T15:41:34;16.30;99.90
8340;DHT22;4207;49.314;7.162;2022-10-31T15:44:16;16.30;99.90
8340;DHT22;4207;49.314;7.162;2022-10-31T15:46:53;16.30;99.90
8340;DHT22;4207;49.314;7.162;2022-10-31T15:49:34;16.20;99.90
8340;DHT22;4207;49.314;7.162;2022-10-31T15:52:07;16.20;99.90
8340;DHT22;4207;49.314;7.162;2022-10-31T15:54:45;16.10;99.90
8340;DHT22;4207;49.314;7.162;2022-10-31T15:57:14;16.00;99.90
8340;DHT22;4207;49.314;7.162;2022-10-31T15:59:46;16.00;99.90
8340;DHT22;4207;49.314;7.162;2022-10-31T16:02:18;15.90;99.90
8340;DHT22;4207;49.314;7.162;2022-10-31T16:04:53;15.80;99.90
8340;DHT22;4207;49.314;7.162;2022-10-31T16:07:23;15.70;99.90
8340;DHT22;4207;49.314;7.162;2022-10-31T16:09:53;15.70;99.90
8340;DHT22;4207;49.314;7.162;2022-10-31T16:12:23;15.60;99.90
8340;DHT22;4207;49.314;7.162;2022-10-31T16:14:52;15.60;99.90
8340;DHT22;4207;49.314;7.162;2022-10-31T16:17:22;15.50;99.90
8340;DHT22;4207;49.314;7.162;2022-10-31T16:19:55;15.50;99.90
8340;DHT22;4207;49.314;7.162;2022-10-31T16:22:28;15.40;99.90
8340;DHT22;4207;49.314;7.162;2022-10-31T16:25:01;15.40;99.90
8340;DHT22;4207;49.314;7.162;2022-10-31T16:27:31;15.30;99.90
8340;DHT22;4207;49.314;7.162;2022-10-31T16:30:00;15.30;99.90
8340;DHT22;4207;49.314;7.162;2022-10-31T16:32:33;15.30;99.90
8340;DHT22;4207;49.314;7.162;2022-10-31T16:35:18;15.20;99.90
8340;DHT22;4207;49.314;7.162;2022-10-31T16:37:47;15.10;99.90
8340;DHT22;4207;49.314;7.162;2022-10-31T16:40:15;15.00;99.90
8340;DHT22;4207;49.314;7.162;2022-10-31T16:42:45;14.90;99.90
8340;DHT22;4207;49.314;7.162;2022-10-31T16:45:16;14.80;99.90
8340;DHT22;4207;49.314;7.162;2022-10-31T16:47:44;14.80;99.90
8340;DHT22;4207;49.314;7.162;2022-10-31T16:50:14;14.70;99.90
8340;DHT22;4207;49.314;7.162;2022-10-31T16:52:43;14.70;99.90
8340;DHT22;4207;49.314;7.162;2022-10-31T16:55:33;14.60;99.90
8340;DHT22;4207;49.314;7.162;2022-10-31T16:58:02;14.50;99.90
8340;DHT22;4207;49.314;7.162;2022-10-31T17:00:30;14.40;99.90
8340;DHT22;4207;49.314;7.162;2022-10-31T17:02:58;14.40;99.90
8340;DHT22;4207;49.314;7.162;2022-10-31T17:05:26;14.40;99.90
8340;DHT22;4207;49.314;7.162;2022-10-31T17:07:56;14.40;99.90
8340;DHT22;4207;49.314;7.162;2022-10-31T17:10:25;14.40;99.90
8340;DHT22;4207;49.314;7.162;2022-10-31T17:12:55;14.40;99.90
8340;DHT22;4207;49.314;7.162;2022-10-31T17:15:27;14.40;99.90
8340;DHT22;4207;49.314;7.162;2022-10-31T17:17:55;14.40;99.90
8340;DHT22;4207;49.314;7.162;2022-10-31T17:20:26;14.50;99.90
8340;DHT22;4207;49.314;7.162;2022-10-31T17:22:55;14.50;99.90
8340;DHT22;4207;49.314;7.162;2022-10-31T17:25:26;14.40;99.90
8340;DHT22;4207;49.314;7.162;2022-10-31T17:27:56;14.40;99.90
8340;DHT22;4207;49.314;7.162;2022-10-31T17:30:24;14.30;99.90